Aviation Digital Data Service (ADDS)

Output produced by METARs form (0024 UTC 30 January 2015)
found at http://www.aviationweather.gov/adds/metars/
 
KAOO 300015Z AUTO 19004KT 2 1/2SM -SN BR SCT009 OVC012 M03/M05 A2988 RMK AO2 P0001 T10331050
KAOO 292359Z AUTO 21006KT 1 3/4SM -SN BR BKN012 OVC017 M03/M05 A2988 RMK AO2 P0000 T10331050
KAOO 292353Z AUTO 20007KT 5SM -SN BR OVC012 M03/M05 A2988 RMK AO2 SNE14B38 SLP143 P0000 60003 I6002 T10331050 11022 21050 58014
KAOO 292340Z AUTO 22006KT 6SM -SN BR OVC015 M03/M06 A2989 RMK AO2 SNE14B38 P0000 T10331056
KAOO 292329Z AUTO 20007KT 8SM BKN014 OVC022 M03/M06 A2989 RMK AO2 SNE14 P0000 T10331056
KAOO 292307Z AUTO 19005KT 4SM -SN BR SCT008 OVC015 M04/M05 A2990 RMK AO2 P0000 T10391050
KAOO 292259Z AUTO 21005KT 2SM -SN BR BKN008 OVC013 M04/M06 A2990 RMK AO2 P0000 T10391056
KAOO 292253Z AUTO 22006KT 3/4SM -SN BR BKN006 OVC013 M04/M06 A2990 RMK AO2 FZRAE01SNB36 SLP151 P0001 I1001 T10391056
KAOO 292246Z AUTO 21006KT 1/2SM SN FZFG OVC006 M04/M06 A2990 RMK AO2 FZRAE01SNB36 P0001 I1001 T10391056
KAOO 292240Z AUTO 20006KT 1 1/2SM -SN BR OVC008 M04/M06 A2990 RMK AO2 FZRAE01SNB36 P0000 I1001 T10391056
KAOO 292228Z AUTO 19004KT 4SM BR OVC008 M04/M06 A2991 RMK AO2 FZRAE01 CIG 007V011 P0000 I1001 T10391056
KAOO 292207Z AUTO 21007KT 3SM BR OVC010 M04/M06 A2991 RMK AO2 FZRAE01 CIG 007V014 P0000 I1000 T10441061
KAOO 292148Z AUTO 19010KT 4SM -FZRA BR OVC013 M04/M06 A2992 RMK AO2 UPB30E42FZRAB42SNE05 SLP156 P0000 I1001 T10391061
KAOO 292147Z AUTO 19010KT 4SM -FZRA BR OVC013 M04/M06 A2992 RMK AO2 UPB30E42FZRAB42SNE05 P0000 I1001
KAOO 292102Z AUTO 19005KT 6SM -SN BR SCT020 BKN028 OVC034 M04/M07 A2993 RMK AO2 P0000 T10441067
KAOO 292053Z AUTO 17009KT 2SM -SN FEW011 BKN030 OVC036 M04/M07 A2993 RMK AO2 SLP161 P0002 60002 T10441072 56022
KAOO 292046Z AUTO 17010KT 2SM -SN BR SCT011 OVC035 M04/M07 A2992 RMK AO2 P0002 T10441067
KAOO 292039Z AUTO 18006KT 1SM -SN BR BKN013 OVC035 M04/M07 A2992 RMK AO2 P0002 T10441067
KAOO 292033Z AUTO 17006KT 1/4SM SN FZFG BKN013 OVC035 M05/M07 A2993 RMK AO2 P0001 T10501067
KAOO 292022Z AUTO 17008KT 1/2SM SN VV018 M04/M08 A2994 RMK AO2 P0001 T10441078
KAOO 292013Z AUTO 18008KT 1 1/4SM -SN BKN026 OVC035 M04/M08 A2994 RMK AO2 P0000 T10391083
KAOO 292006Z AUTO 18011KT 2SM -SN BKN028 BKN033 OVC042 M04/M09 A2995 RMK AO2 P0000 T10391089
KAOO 291953Z AUTO 18009KT 6SM -SN OVC041 M03/M11 A2995 RMK AO2 SNB34 SLP169 P0000 T10331106
KAOO 291853Z AUTO 21004KT 10SM OVC050 M03/M12 A2996 RMK AO2 UPB32E46 SLP172 P0000 T10281117
KAOO 291753Z AUTO 17008KT 10SM BKN070 OVC090 M02/M14 A3000 RMK AO2 SLP184 T10221139 11022 21117 58042
KAOO 291653Z AUTO 17008KT 10SM OVC070 M03/M15 A3005 RMK AO2 SLP205 T10281150
KAOO 291553Z AUTO VRB03KT 10SM OVC075 M04/M14 A3009 RMK AO2 SLP214 T10391144
KAOO 291453Z AUTO VRB03KT 8SM OVC085 M06/M13 A3012 RMK AO2 SLP227 T10611128 58015
KAOO 291353Z AUTO 08003KT 6SM HZ OVC100 M09/M13 A3015 RMK AO2 SLP237 T10891128
KAOO 291253Z AUTO 00000KT 5SM HZ FEW120 M11/M14 A3017 RMK AO2 SLP246 T11111139
KAOO 291153Z AUTO 00000KT 9SM SCT110 M10/M14 A3017 RMK AO2 SLP244 7//// T11001144 11100 21161 58024
KAOO 291053Z AUTO 15003KT 9SM FEW110 M12/M15 A3020 RMK AO2 SLP256 T11171150
KAOO 290953Z AUTO 00000KT 10SM CLR M12/M16 A3021 RMK AO2 SLP259 T11171156
KAOO 290853Z AUTO 19003KT 10SM CLR M13/M16 A3024 RMK AO2 SLP269 T11331161 56004
KAOO 290753Z AUTO 00000KT 10SM CLR M13/M16 A3024 RMK AO2 SLP271 T11331161
KAOO 290653Z AUTO 22003KT 10SM CLR M13/M16 A3024 RMK AO2 SLPNO T11281161
KAOO 290553Z AUTO 24004KT 7SM CLR M15/M17 A3025 RMK AO2 SLPNO T11501172 11078 21172 56008
KAOO 290453Z AUTO 00000KT 10SM CLR M16/M18 A3026 RMK AO2 SLP279 T11561178 410391156
KAOO 290353Z AUTO 20003KT 10SM CLR M11/M16 A3027 RMK AO2 SLP281 T11111156
KAOO 290253Z AUTO 21007KT 10SM CLR M10/M15 A3028 RMK AO2 SLP283 T11001150 51005
KAOO 290153Z AUTO 26005KT 10SM CLR M08/M14 A3028 RMK AO2 SLP282 T10831144
KAOO 290053Z AUTO 26006KT 10SM CLR M09/M15 A3027 RMK AO2 SLP283 T10891150
KAOO 282353Z AUTO 25006KT 10SM CLR M08/M15 A3026 RMK AO2 SLP278 6//// T10831150 53016
KAOO 282253Z AUTO 30005KT 10SM CLR M07/M14 A3025 RMK AO2 SLP273 T10671144
KAOO 282153Z AUTO 31008KT 10SM CLR M05/M14 A3023 RMK AO2 SLP263 T10501144
KAOO 282053Z AUTO 32011KT 10SM CLR M04/M14 A3021 RMK AO2 SLP258 6//// T10441144 55003
KAOO 281953Z AUTO CLR M04/M14 A3021 RMK AO2 SLP255 T10441144 PWINO FZRANO $
KAOO 281853Z AUTO A3021 RMK AO2 SLPNO PWINO FZRANO $
KAOO 281753Z AUTO 30011KT A3022 RMK AO2 SLPNO 6//// 50002 PWINO FZRANO PNO $
KAOO 281653Z AUTO 30011KT 10SM CLR M07/M14 A3023 RMK AO2 SLP264 T10721144
KAOO 281553Z AUTO 32011KT 10SM CLR M08/M16 A3023 RMK AO2 SLP265 T10781156
KAOO 281453Z AUTO 32008KT 10SM CLR M08/M16 A3022 RMK AO2 SLP260 T10831156 51021
KAOO 281353Z AUTO 29006KT 10SM CLR M11/M15 A3020 RMK AO2 SLP254 T11111150
KAOO 281253Z AUTO VRB03KT 10SM CLR M12/M15 A3018 RMK AO2 SLP249 T11171150